Time;durP1;ratioP1;P1;durP2;ratioP2;P2;SDS_P1;SDS_P2;PMS_P1;PMS_P2;Temp;Humidity;BMP_temperature;BMP_pressure;BME280_temperature;BME280_humidity;BME280_pressure;Samples;Min_cycle;Max_cycle;Signal;HPM_P1;HPM_P2
2022/02/24 00:00:50;;;;;;;;;;;17.60;56.90;;;;;;5034638;28;19953;-64
2022/02/24 00:03:15;;;;;;;;;;;17.50;57.00;;;;;;4992551;28;19922;-64
2022/02/24 00:05:40;;;;;;;;;;;17.60;56.90;;;;;;4988791;28;20274;-65
2022/02/24 00:08:06;;;;;;;;;;;17.60;56.90;;;;;;4988688;28;19926;-64
2022/02/24 00:10:31;;;;;;;;;;;17.60;56.70;;;;;;4988151;28;19918;-63
2022/02/24 00:12:57;;;;;;;;;;;17.60;56.80;;;;;;4988554;28;20135;-65
2022/02/24 00:15:22;;;;;;;;;;;17.60;56.60;;;;;;4988793;28;19945;-65
2022/02/24 00:17:48;;;;;;;;;;;17.50;56.70;;;;;;4987464;28;19918;-64
2022/02/24 00:20:13;;;;;;;;;;;17.50;56.90;;;;;;4987964;28;19922;-64
2022/02/24 00:22:39;;;;;;;;;;;17.50;56.80;;;;;;4997468;28;19944;-65
2022/02/24 00:25:05;;;;;;;;;;;17.50;56.70;;;;;;5007622;28;19940;-64
2022/02/24 00:27:30;;;;;;;;;;;17.60;56.60;;;;;;5008146;28;19913;-64
2022/02/24 00:29:56;;;;;;;;;;;17.60;56.40;;;;;;5006802;28;20368;-64
2022/02/24 00:32:21;;;;;;;;;;;17.50;56.50;;;;;;5005021;28;19921;-64
2022/02/24 00:34:47;;;;;;;;;;;17.50;56.40;;;;;;4987287;28;19914;-64
2022/02/24 00:37:14;;;;;;;;;;;17.50;56.40;;;;;;4987561;28;19922;-65
2022/02/24 00:39:40;;;;;;;;;;;17.60;56.30;;;;;;4987530;28;19914;-64
2022/02/24 00:42:05;;;;;;;;;;;17.60;56.30;;;;;;4988194;28;19928;-63
2022/02/24 00:44:31;;;;;;;;;;;17.60;56.20;;;;;;4987572;28;20391;-64
2022/02/24 00:46:56;;;;;;;;;;;17.70;55.90;;;;;;4987742;28;19988;-64
2022/02/24 00:49:23;;;;;;;;;;;17.60;55.90;;;;;;4987701;28;19921;-64
2022/02/24 00:51:49;;;;;;;;;;;17.60;56.00;;;;;;4987253;28;20002;-65
2022/02/24 00:54:15;;;;;;;;;;;17.70;55.80;;;;;;5006664;28;20317;-64
2022/02/24 00:56:40;;;;;;;;;;;17.60;55.90;;;;;;5006988;28;19923;-66
2022/02/24 00:59:06;;;;;;;;;;;17.60;55.80;;;;;;4992322;28;20546;-63
2022/02/24 01:01:31;;;;;;;;;;;17.60;55.80;;;;;;5005020;28;19921;-63
2022/02/24 01:03:57;;;;;;;;;;;17.60;55.80;;;;;;5002815;28;20296;-63
2022/02/24 01:06:22;;;;;;;;;;;17.50;55.80;;;;;;5006045;28;19944;-63
2022/02/24 01:08:48;;;;;;;;;;;17.50;56.00;;;;;;5003137;28;19921;-64
2022/02/24 01:11:13;;;;;;;;;;;17.50;56.00;;;;;;5005335;28;19914;-66
2022/02/24 01:13:39;;;;;;;;;;;17.40;56.10;;;;;;4996060;28;19914;-62
2022/02/24 01:16:04;;;;;;;;;;;17.50;56.00;;;;;;4988001;28;19918;-63
2022/02/24 01:18:30;;;;;;;;;;;17.40;55.90;;;;;;4986087;28;20440;-60
2022/02/24 01:20:55;;;;;;;;;;;17.50;55.80;;;;;;4988691;28;19936;-60
2022/02/24 01:23:21;;;;;;;;;;;17.50;55.60;;;;;;4988822;28;19914;-60
2022/02/24 01:25:46;;;;;;;;;;;17.40;55.80;;;;;;4986658;28;19918;-63
2022/02/24 01:28:12;;;;;;;;;;;17.40;55.90;;;;;;4987221;28;19917;-65
2022/02/24 01:30:37;;;;;;;;;;;17.50;55.70;;;;;;4992193;28;19918;-58
2022/02/24 01:33:03;;;;;;;;;;;17.50;55.70;;;;;;4992000;28;19925;-58
2022/02/24 01:35:28;;;;;;;;;;;17.40;55.80;;;;;;5002437;28;20373;-64
2022/02/24 01:37:53;;;;;;;;;;;17.50;55.60;;;;;;5007756;28;19922;-62
2022/02/24 01:40:19;;;;;;;;;;;17.50;55.40;;;;;;4990454;28;19914;-60
2022/02/24 01:42:44;;;;;;;;;;;17.50;55.50;;;;;;4986956;28;19920;-60
2022/02/24 01:45:10;;;;;;;;;;;17.50;55.40;;;;;;4985904;28;20356;-59
2022/02/24 01:47:35;;;;;;;;;;;17.50;55.50;;;;;;4986686;28;19924;-60
2022/02/24 01:50:01;;;;;;;;;;;17.40;55.50;;;;;;4984510;28;19914;-64
2022/02/24 01:52:27;;;;;;;;;;;17.40;55.60;;;;;;4984726;28;20035;-65
2022/02/24 01:54:52;;;;;;;;;;;17.40;55.70;;;;;;4985942;28;19972;-64
2022/02/24 01:57:18;;;;;;;;;;;17.40;55.80;;;;;;4986195;28;19918;-64
2022/02/24 01:59:43;;;;;;;;;;;17.30;56.00;;;;;;4985067;28;20606;-65
2022/02/24 02:02:09;;;;;;;;;;;17.40;55.60;;;;;;4986458;28;19914;-65
2022/02/24 02:04:36;;;;;;;;;;;17.30;55.80;;;;;;4984574;28;19914;-59
2022/02/24 02:07:02;;;;;;;;;;;17.30;55.90;;;;;;4986239;28;20457;-64
2022/02/24 02:09:27;;;;;;;;;;;17.40;55.90;;;;;;4992286;28;19929;-60
2022/02/24 02:11:52;;;;;;;;;;;17.40;55.80;;;;;;5037161;28;19918;-63
2022/02/24 02:14:18;;;;;;;;;;;17.40;55.60;;;;;;5004642;28;19940;-61
2022/02/24 02:16:47;;;;;;;;;;;17.50;55.60;;;;;;5005991;28;19968;-55
2022/02/24 02:19:13;;;;;;;;;;;17.50;55.20;;;;;;5004607;28;19922;-62
2022/02/24 02:21:38;;;;;;;;;;;17.50;55.30;;;;;;5004586;28;19925;-63
2022/02/24 02:24:04;;;;;;;;;;;17.50;55.30;;;;;;5004188;28;19924;-66
2022/02/24 02:26:31;;;;;;;;;;;17.50;55.30;;;;;;5005698;28;19913;-65
2022/02/24 02:28:59;;;;;;;;;;;17.40;55.40;;;;;;5004788;28;20001;-60
2022/02/24 02:31:25;;;;;;;;;;;17.50;55.20;;;;;;4984428;28;19920;-62
2022/02/24 02:33:59;;;;;;;;;;;17.50;55.20;;;;;;4985068;28;19917;-63
2022/02/24 02:36:24;;;;;;;;;;;17.50;55.30;;;;;;5004453;28;21529;-63
2022/02/24 02:38:50;;;;;;;;;;;17.50;55.20;;;;;;5004931;28;19921;-64
2022/02/24 02:41:15;;;;;;;;;;;17.50;55.30;;;;;;5006013;28;20466;-63
2022/02/24 02:43:41;;;;;;;;;;;17.40;55.30;;;;;;5008884;28;19914;-63
2022/02/24 02:46:06;;;;;;;;;;;17.40;55.40;;;;;;4991139;28;19949;-65
2022/02/24 02:48:31;;;;;;;;;;;17.40;55.50;;;;;;4988226;28;19913;-64
2022/02/24 02:50:57;;;;;;;;;;;17.40;55.50;;;;;;5006618;28;20335;-57
2022/02/24 02:53:22;;;;;;;;;;;17.40;55.50;;;;;;5009433;28;19918;-64
2022/02/24 02:55:48;;;;;;;;;;;17.40;55.40;;;;;;5008090;28;21959;-64
2022/02/24 02:58:13;;;;;;;;;;;17.40;55.30;;;;;;5008717;28;19917;-63
2022/02/24 03:00:39;;;;;;;;;;;17.40;55.30;;;;;;5007966;28;20300;-60
2022/02/24 03:03:04;;;;;;;;;;;17.40;55.30;;;;;;5009315;28;19913;-63
2022/02/24 03:05:30;;;;;;;;;;;17.40;55.20;;;;;;4997937;28;19935;-65
2022/02/24 03:07:55;;;;;;;;;;;17.30;55.40;;;;;;4989959;28;19976;-59
2022/02/24 03:10:21;;;;;;;;;;;17.40;55.40;;;;;;4987953;28;19914;-62
2022/02/24 03:12:46;;;;;;;;;;;17.30;55.50;;;;;;4990006;28;20365;-64
2022/02/24 03:15:15;;;;;;;;;;;17.40;55.40;;;;;;4988346;28;19976;-56
2022/02/24 03:17:41;;;;;;;;;;;17.40;55.20;;;;;;4989672;28;19957;-63
2022/02/24 03:20:07;;;;;;;;;;;17.30;55.70;;;;;;4988019;28;19918;-61
2022/02/24 03:22:33;;;;;;;;;;;17.20;55.90;;;;;;4989335;28;19922;-64
2022/02/24 03:24:58;;;;;;;;;;;17.30;55.80;;;;;;4988414;28;19926;-63
2022/02/24 03:27:23;;;;;;;;;;;17.30;55.50;;;;;;5009517;28;19967;-63
2022/02/24 03:29:49;;;;;;;;;;;17.50;55.20;;;;;;5007090;28;20403;-64
2022/02/24 03:32:14;;;;;;;;;;;17.70;54.90;;;;;;4988654;28;19926;-63
2022/02/24 03:34:40;;;;;;;;;;;17.70;54.70;;;;;;4990438;28;19918;-62
2022/02/24 03:37:06;;;;;;;;;;;17.80;54.50;;;;;;4999874;28;19931;-66
2022/02/24 03:39:31;;;;;;;;;;;18.00;54.20;;;;;;5006685;28;19967;-64
2022/02/24 03:41:57;;;;;;;;;;;18.10;53.90;;;;;;5009201;28;19914;-63
2022/02/24 03:44:22;;;;;;;;;;;18.20;53.70;;;;;;5009350;28;19963;-64
2022/02/24 03:46:48;;;;;;;;;;;18.20;53.40;;;;;;4993600;28;19936;-65
2022/02/24 03:49:13;;;;;;;;;;;18.30;53.30;;;;;;4987999;28;19922;-63
2022/02/24 03:51:39;;;;;;;;;;;18.30;53.10;;;;;;4989122;28;20399;-63
2022/02/24 03:54:04;;;;;;;;;;;18.40;52.90;;;;;;4971036;28;20064;-61
2022/02/24 03:56:30;;;;;;;;;;;18.50;52.70;;;;;;4999171;28;19914;-63
2022/02/24 03:58:55;;;;;;;;;;;18.50;52.70;;;;;;4985745;28;19914;-60
2022/02/24 04:01:20;;;;;;;;;;;18.60;52.60;;;;;;4988189;28;19965;-64
2022/02/24 04:03:46;;;;;;;;;;;18.60;52.30;;;;;;4986308;28;19922;-63
2022/02/24 04:06:12;;;;;;;;;;;18.60;52.30;;;;;;4988137;28;19914;-63
2022/02/24 04:08:37;;;;;;;;;;;18.70;52.30;;;;;;4995462;28;20348;-63
2022/02/24 04:11:02;;;;;;;;;;;18.70;52.20;;;;;;5003113;28;19918;-63
2022/02/24 04:13:28;;;;;;;;;;;18.70;52.10;;;;;;4987294;28;19914;-63
2022/02/24 04:15:53;;;;;;;;;;;18.70;52.10;;;;;;4988461;28;20385;-64
2022/02/24 04:18:19;;;;;;;;;;;18.70;52.00;;;;;;4988002;28;19917;-63
2022/02/24 04:20:46;;;;;;;;;;;18.70;52.00;;;;;;4990351;28;19920;-63
2022/02/24 04:23:12;;;;;;;;;;;18.70;52.00;;;;;;5007535;28;20394;-63
2022/02/24 04:25:37;;;;;;;;;;;18.70;52.00;;;;;;5006632;28;19996;-64
2022/02/24 04:28:03;;;;;;;;;;;18.70;51.90;;;;;;4988268;28;19914;-64
2022/02/24 04:30:28;;;;;;;;;;;18.70;52.00;;;;;;4988599;28;19914;-64
2022/02/24 04:32:54;;;;;;;;;;;18.70;52.00;;;;;;4986578;28;20005;-64
2022/02/24 04:35:19;;;;;;;;;;;18.70;52.00;;;;;;4999882;28;19917;-60
2022/02/24 04:37:45;;;;;;;;;;;18.60;52.10;;;;;;5001881;28;19921;-63
2022/02/24 04:40:10;;;;;;;;;;;18.60;52.10;;;;;;4993929;28;19913;-60
2022/02/24 04:42:36;;;;;;;;;;;18.60;52.00;;;;;;5007145;28;20384;-64
2022/02/24 04:45:01;;;;;;;;;;;18.60;52.20;;;;;;5007214;28;19918;-63
2022/02/24 04:47:27;;;;;;;;;;;18.50;52.30;;;;;;5007083;28;19921;-62
2022/02/24 04:49:52;;;;;;;;;;;18.50;52.40;;;;;;5006662;28;19914;-59
2022/02/24 04:52:18;;;;;;;;;;;18.50;52.50;;;;;;4996071;28;20340;-60
2022/02/24 04:54:43;;;;;;;;;;;18.40;52.60;;;;;;4987501;28;19966;-64
2022/02/24 04:57:08;;;;;;;;;;;18.30;52.70;;;;;;4995965;28;20408;-64
2022/02/24 04:59:34;;;;;;;;;;;18.30;52.90;;;;;;5006306;28;19914;-63
2022/02/24 05:01:59;;;;;;;;;;;18.20;53.20;;;;;;5006620;28;19913;-63
2022/02/24 05:04:25;;;;;;;;;;;18.20;53.10;;;;;;5006779;28;19937;-64
2022/02/24 05:06:50;;;;;;;;;;;18.10;53.20;;;;;;5003329;28;19913;-60
2022/02/24 05:09:16;;;;;;;;;;;18.00;53.30;;;;;;4986738;28;19922;-60
2022/02/24 05:11:41;;;;;;;;;;;18.00;53.30;;;;;;4987038;28;19961;-64
2022/02/24 05:14:07;;;;;;;;;;;18.00;53.60;;;;;;4987057;28;19918;-64
2022/02/24 05:16:32;;;;;;;;;;;18.00;53.60;;;;;;4986899;28;19918;-65
2022/02/24 05:18:58;;;;;;;;;;;18.00;53.60;;;;;;4986583;28;19964;-58
2022/02/24 05:21:23;;;;;;;;;;;17.90;53.60;;;;;;4987142;28;19945;-56
2022/02/24 05:23:50;;;;;;;;;;;17.90;53.70;;;;;;4986386;28;20397;-64
2022/02/24 05:26:16;;;;;;;;;;;17.90;53.70;;;;;;4987144;28;19913;-65
2022/02/24 05:28:42;;;;;;;;;;;17.90;53.90;;;;;;5004864;28;19947;-63
2022/02/24 05:31:07;;;;;;;;;;;17.90;53.80;;;;;;5006016;28;19917;-63
2022/02/24 05:33:33;;;;;;;;;;;17.90;53.90;;;;;;5006606;28;19960;-63
2022/02/24 05:35:58;;;;;;;;;;;17.90;53.90;;;;;;5003814;28;19914;-56
2022/02/24 05:38:23;;;;;;;;;;;17.90;54.10;;;;;;5001945;28;19943;-59
2022/02/24 05:40:49;;;;;;;;;;;17.90;54.20;;;;;;5003747;28;19913;-62
2022/02/24 05:43:14;;;;;;;;;;;18.00;54.60;;;;;;5003049;28;20326;-59
2022/02/24 05:45:40;;;;;;;;;;;18.00;54.70;;;;;;5003218;28;19917;-60
2022/02/24 05:48:06;;;;;;;;;;;18.30;54.40;;;;;;5002439;28;19918;-60
2022/02/24 05:50:31;;;;;;;;;;;18.40;54.10;;;;;;5002682;28;19913;-66
2022/02/24 05:53:02;;;;;;;;;;;18.40;54.00;;;;;;4995661;28;20417;-63
2022/02/24 05:55:36;;;;;;;;;;;18.60;53.60;;;;;;5001053;28;19937;-67
2022/02/24 05:58:02;;;;;;;;;;;18.40;54.00;;;;;;5004737;28;19920;-64
2022/02/24 06:00:27;;;;;;;;;;;18.30;54.30;;;;;;5003894;28;19914;-58
2022/02/24 06:02:53;;;;;;;;;;;18.20;54.40;;;;;;5003286;28;19971;-56
2022/02/24 06:05:18;;;;;;;;;;;18.20;54.40;;;;;;5003441;28;19913;-64
2022/02/24 06:07:44;;;;;;;;;;;18.10;54.60;;;;;;5000475;28;19933;-65
2022/02/24 06:10:10;;;;;;;;;;;18.10;54.60;;;;;;4984230;28;19929;-62
2022/02/24 06:12:35;;;;;;;;;;;18.10;54.70;;;;;;4982917;28;19914;-64
2022/02/24 06:15:00;;;;;;;;;;;18.00;54.60;;;;;;4983483;28;19917;-64
2022/02/24 06:17:26;;;;;;;;;;;18.00;54.60;;;;;;4986605;28;20377;-61
2022/02/24 06:19:52;;;;;;;;;;;18.00;54.70;;;;;;4987281;28;19956;-61
2022/02/24 06:22:17;;;;;;;;;;;18.00;54.70;;;;;;4986666;28;20000;-59
2022/02/24 06:24:42;;;;;;;;;;;18.10;55.20;;;;;;4985740;28;19922;-64
2022/02/24 06:27:08;;;;;;;;;;;18.30;55.30;;;;;;4984806;28;19953;-62
2022/02/24 06:29:33;;;;;;;;;;;18.40;55.40;;;;;;4985306;28;19913;-63
2022/02/24 06:31:59;;;;;;;;;;;18.40;55.50;;;;;;4989738;28;19917;-65
2022/02/24 06:34:24;;;;;;;;;;;18.40;56.00;;;;;;4995043;28;19917;-63
2022/02/24 06:36:50;;;;;;;;;;;18.30;56.50;;;;;;5005491;28;20481;-63
2022/02/24 06:39:16;;;;;;;;;;;18.30;57.10;;;;;;5006495;28;20303;-64
2022/02/24 06:41:41;;;;;;;;;;;18.20;57.50;;;;;;5006773;28;19960;-64
2022/02/24 06:44:06;;;;;;;;;;;18.20;57.70;;;;;;5006612;28;20459;-63
2022/02/24 06:46:32;;;;;;;;;;;18.10;57.80;;;;;;5006318;28;19917;-57
2022/02/24 06:48:57;;;;;;;;;;;18.10;58.10;;;;;;5006455;28;19920;-59
2022/02/24 06:51:23;;;;;;;;;;;18.10;58.10;;;;;;5006171;28;20604;-61
2022/02/24 06:53:48;;;;;;;;;;;18.10;58.30;;;;;;5006207;28;19948;-55
2022/02/24 06:56:14;;;;;;;;;;;18.20;58.20;;;;;;5006838;28;19914;-62
2022/02/24 06:58:39;;;;;;;;;;;18.20;58.20;;;;;;5000098;28;20283;-63
2022/02/24 07:01:05;;;;;;;;;;;18.20;58.10;;;;;;4986661;28;19914;-63
2022/02/24 07:03:30;;;;;;;;;;;18.20;58.00;;;;;;4986248;28;19913;-64
2022/02/24 07:05:56;;;;;;;;;;;18.20;57.90;;;;;;4987405;28;19921;-66
2022/02/24 07:08:21;;;;;;;;;;;18.20;57.90;;;;;;4986554;28;19922;-61
2022/02/24 07:10:47;;;;;;;;;;;18.20;57.90;;;;;;4985225;28;19956;-63
2022/02/24 07:13:12;;;;;;;;;;;18.20;57.60;;;;;;4986213;28;20061;-64
2022/02/24 07:15:38;;;;;;;;;;;18.20;57.60;;;;;;4986624;28;19914;-58
2022/02/24 07:18:03;;;;;;;;;;;18.20;57.50;;;;;;4986143;28;19922;-64
2022/02/24 07:20:28;;;;;;;;;;;18.20;57.70;;;;;;5003016;28;20300;-62
2022/02/24 07:22:54;;;;;;;;;;;18.20;57.50;;;;;;5006939;28;19924;-65
2022/02/24 07:25:19;;;;;;;;;;;18.20;57.50;;;;;;5005909;28;19941;-62
2022/02/24 07:27:45;;;;;;;;;;;18.10;57.50;;;;;;5006065;28;19913;-62
2022/02/24 07:30:10;;;;;;;;;;;18.20;57.30;;;;;;5005621;28;19957;-63
2022/02/24 07:32:36;;;;;;;;;;;18.20;57.00;;;;;;5005565;28;19944;-58
2022/02/24 07:35:01;;;;;;;;;;;18.20;56.80;;;;;;5006098;28;19925;-63
2022/02/24 07:37:27;;;;;;;;;;;18.10;56.70;;;;;;5005773;28;19917;-62
2022/02/24 07:39:52;;;;;;;;;;;18.10;56.60;;;;;;5005449;28;20306;-65
2022/02/24 07:42:18;;;;;;;;;;;18.10;56.40;;;;;;5003621;28;19960;-65
2022/02/24 07:44:44;;;;;;;;;;;18.10;56.10;;;;;;5005233;28;20412;-60
2022/02/24 07:47:09;;;;;;;;;;;18.10;55.90;;;;;;5004645;28;19925;-56
2022/02/24 07:49:35;;;;;;;;;;;18.00;55.90;;;;;;5005154;28;19914;-63
2022/02/24 07:52:00;;;;;;;;;;;18.00;55.80;;;;;;5005181;28;19913;-63
2022/02/24 07:54:26;;;;;;;;;;;18.00;55.90;;;;;;5001946;28;19968;-63
2022/02/24 07:56:51;;;;;;;;;;;18.00;55.70;;;;;;4985349;28;19921;-62
2022/02/24 07:59:17;;;;;;;;;;;18.00;55.60;;;;;;4988394;28;20415;-65
2022/02/24 08:01:42;;;;;;;;;;;18.00;55.50;;;;;;5004935;28;19996;-62
2022/02/24 08:04:08;;;;;;;;;;;18.00;55.60;;;;;;5005346;28;19917;-53
2022/02/24 08:06:34;;;;;;;;;;;18.10;55.50;;;;;;5005851;28;19917;-60
2022/02/24 08:09:00;;;;;;;;;;;18.10;55.50;;;;;;5003397;28;19928;-62
2022/02/24 08:11:25;;;;;;;;;;;18.20;55.30;;;;;;4986259;28;19918;-64
2022/02/24 08:13:50;;;;;;;;;;;18.20;55.10;;;;;;5004751;28;19948;-62
2022/02/24 08:16:16;;;;;;;;;;;18.20;54.80;;;;;;5007328;28;19920;-63
2022/02/24 08:18:41;;;;;;;;;;;18.30;54.60;;;;;;5007979;28;19918;-65
2022/02/24 08:21:07;;;;;;;;;;;18.40;54.40;;;;;;5004022;28;19922;-62
2022/02/24 08:23:32;;;;;;;;;;;18.30;54.40;;;;;;5005218;28;19921;-63
2022/02/24 08:25:58;;;;;;;;;;;18.30;54.40;;;;;;5006309;28;19936;-66
2022/02/24 08:28:23;;;;;;;;;;;18.40;54.20;;;;;;5004965;28;20007;-62
2022/02/24 08:30:48;;;;;;;;;;;18.30;54.20;;;;;;5004459;28;19922;-62
2022/02/24 08:33:14;;;;;;;;;;;18.30;54.20;;;;;;5006256;28;20639;-60
2022/02/24 08:35:39;;;;;;;;;;;18.40;54.20;;;;;;5005413;28;19917;-61
2022/02/24 08:38:05;;;;;;;;;;;18.40;54.00;;;;;;5004690;28;19917;-56
2022/02/24 08:40:30;;;;;;;;;;;18.50;53.90;;;;;;5003695;28;19920;-64
2022/02/24 08:42:56;;;;;;;;;;;18.50;53.90;;;;;;5004892;28;19913;-55
2022/02/24 08:45:21;;;;;;;;;;;18.50;54.00;;;;;;5000990;28;20017;-58
2022/02/24 08:47:47;;;;;;;;;;;18.50;54.30;;;;;;4984034;28;19914;-66
2022/02/24 08:50:12;;;;;;;;;;;18.50;54.70;;;;;;4984103;28;20371;-63
2022/02/24 08:52:38;;;;;;;;;;;18.40;54.80;;;;;;4983687;28;19917;-58
2022/02/24 08:55:04;;;;;;;;;;;18.50;54.90;;;;;;4985530;28;19918;-61
2022/02/24 08:57:29;;;;;;;;;;;18.50;54.90;;;;;;5002126;28;20547;-62
2022/02/24 08:59:54;;;;;;;;;;;18.40;55.00;;;;;;5003360;28;20343;-61
2022/02/24 09:02:20;;;;;;;;;;;18.50;55.00;;;;;;5003733;28;19917;-62
2022/02/24 09:04:45;;;;;;;;;;;18.50;55.10;;;;;;5003534;28;19937;-63
2022/02/24 09:07:11;;;;;;;;;;;18.50;55.00;;;;;;5003404;28;19913;-60
2022/02/24 09:09:36;;;;;;;;;;;18.50;54.90;;;;;;5003101;28;19922;-62
2022/02/24 09:12:02;;;;;;;;;;;18.50;55.00;;;;;;5004010;28;20403;-62
2022/02/24 09:14:27;;;;;;;;;;;18.50;55.00;;;;;;5003915;28;19914;-62
2022/02/24 09:16:53;;;;;;;;;;;18.50;54.80;;;;;;5002855;28;20326;-60
2022/02/24 09:19:18;;;;;;;;;;;18.50;54.80;;;;;;5003113;28;20628;-62
2022/02/24 09:21:44;;;;;;;;;;;18.50;55.00;;;;;;4993198;28;19914;-58
2022/02/24 09:24:09;;;;;;;;;;;18.50;55.00;;;;;;4983080;28;20405;-54
2022/02/24 09:26:36;;;;;;;;;;;18.50;54.90;;;;;;4983479;28;19984;-61
2022/02/24 09:29:02;;;;;;;;;;;18.50;54.80;;;;;;4983178;28;19972;-62
2022/02/24 09:31:27;;;;;;;;;;;18.60;54.60;;;;;;4982750;28;19957;-61
2022/02/24 09:33:53;;;;;;;;;;;18.50;54.70;;;;;;4984141;28;20447;-57
2022/02/24 09:36:18;;;;;;;;;;;18.50;54.60;;;;;;4983604;28;19914;-61
2022/02/24 09:38:44;;;;;;;;;;;18.60;54.60;;;;;;4983103;28;19918;-66
2022/02/24 09:41:11;;;;;;;;;;;18.60;54.50;;;;;;4983897;28;20404;-61
2022/02/24 09:43:36;;;;;;;;;;;18.60;54.50;;;;;;4984647;28;19914;-60
2022/02/24 09:46:07;;;;;;;;;;;18.60;54.40;;;;;;4984064;28;20403;-62
2022/02/24 09:48:33;;;;;;;;;;;18.60;54.30;;;;;;5002640;28;19963;-65
2022/02/24 09:51:00;;;;;;;;;;;18.60;54.20;;;;;;5001331;28;19922;-63
2022/02/24 09:53:30;;;;;;;;;;;18.60;54.10;;;;;;4999937;28;20298;-61
2022/02/24 09:55:56;;;;;;;;;;;18.70;54.00;;;;;;5002778;28;19953;-62
2022/02/24 09:58:21;;;;;;;;;;;18.60;54.00;;;;;;5002494;28;20443;-62
2022/02/24 10:00:47;;;;;;;;;;;18.70;53.90;;;;;;5025267;28;20461;-60
2022/02/24 10:03:40;;;;;;;;;;;18.70;53.90;;;;;;5033713;28;20403;-53
2022/02/24 10:06:06;;;;;;;;;;;18.70;53.80;;;;;;4993700;28;19914;-62
2022/02/24 10:08:32;;;;;;;;;;;18.70;53.70;;;;;;4985657;28;19929;-63
2022/02/24 10:10:58;;;;;;;;;;;18.70;53.70;;;;;;4983855;28;20651;-57
2022/02/24 10:13:24;;;;;;;;;;;18.70;53.70;;;;;;4982907;28;19976;-62
2022/02/24 10:15:53;;;;;;;;;;;18.70;53.60;;;;;;4983176;28;20428;-63
2022/02/24 10:18:19;;;;;;;;;;;18.80;53.50;;;;;;4982639;28;19917;-55
2022/02/24 10:20:48;;;;;;;;;;;18.70;53.50;;;;;;4983021;28;19936;-59
2022/02/24 10:23:14;;;;;;;;;;;18.80;53.50;;;;;;4997122;28;19972;-65
2022/02/24 10:25:43;;;;;;;;;;;18.80;53.40;;;;;;5002581;28;20366;-62
2022/02/24 10:28:26;;;;;;;;;;;18.80;53.40;;;;;;5002184;28;19918;-62
2022/02/24 10:30:51;;;;;;;;;;;18.80;53.30;;;;;;5002643;28;19914;-57
2022/02/24 10:33:23;;;;;;;;;;;18.80;53.20;;;;;;5002657;28;19914;-61
2022/02/24 10:35:49;;;;;;;;;;;18.80;53.20;;;;;;5013986;28;19913;-61
2022/02/24 10:38:14;;;;;;;;;;;18.90;53.20;;;;;;4992025;28;19940;-61
2022/02/24 10:40:40;;;;;;;;;;;18.90;53.00;;;;;;4982753;28;19914;-62
2022/02/24 10:43:13;;;;;;;;;;;18.90;53.10;;;;;;4983210;28;20564;-63
2022/02/24 10:45:39;;;;;;;;;;;18.90;53.00;;;;;;4982835;28;19914;-62
2022/02/24 10:48:05;;;;;;;;;;;18.90;53.00;;;;;;4983153;28;20393;-64
2022/02/24 10:51:06;;;;;;;;;;;18.90;53.00;;;;;;4982150;28;20403;-62
2022/02/24 10:53:32;;;;;;;;;;;18.90;53.00;;;;;;4915513;29;20694;-60
2022/02/24 10:56:01;;;;;;;;;;;18.90;52.90;;;;;;4983089;28;20403;-62
2022/02/24 10:58:27;;;;;;;;;;;18.90;52.80;;;;;;4991046;28;19925;-62
2022/02/24 11:01:01;;;;;;;;;;;18.90;52.80;;;;;;4982289;28;19914;-65
2022/02/24 11:03:29;;;;;;;;;;;18.90;52.80;;;;;;4995707;28;20370;-63
2022/02/24 11:05:54;;;;;;;;;;;18.90;52.70;;;;;;4988611;28;19914;-63
2022/02/24 11:08:20;;;;;;;;;;;18.90;52.80;;;;;;5005890;28;20591;-57
2022/02/24 11:10:45;;;;;;;;;;;19.00;52.70;;;;;;5005351;28;19918;-64
2022/02/24 11:13:11;;;;;;;;;;;19.00;52.70;;;;;;5005974;28;19945;-61
2022/02/24 11:15:38;;;;;;;;;;;19.00;52.60;;;;;;5006081;28;19920;-60
2022/02/24 11:18:03;;;;;;;;;;;19.00;52.60;;;;;;5029964;28;20008;-65
2022/02/24 11:20:28;;;;;;;;;;;18.90;52.70;;;;;;5004623;28;20358;-62
2022/02/24 11:22:54;;;;;;;;;;;19.00;52.60;;;;;;5036478;28;19913;-62
2022/02/24 11:25:19;;;;;;;;;;;19.00;52.60;;;;;;5004490;28;19918;-57
2022/02/24 11:27:48;;;;;;;;;;;19.00;52.60;;;;;;5037019;28;19961;-53
2022/02/24 11:30:25;;;;;;;;;;;19.00;52.50;;;;;;5004609;28;19928;-56
2022/02/24 11:32:50;;;;;;;;;;;19.00;52.40;;;;;;5005358;28;19913;-62
2022/02/24 11:35:16;;;;;;;;;;;19.00;52.50;;;;;;5005218;28;19913;-60
2022/02/24 11:37:44;;;;;;;;;;;19.00;52.50;;;;;;5004648;28;19918;-57
2022/02/24 11:40:10;;;;;;;;;;;19.00;52.50;;;;;;5005188;28;20104;-59
2022/02/24 11:42:36;;;;;;;;;;;19.00;52.40;;;;;;5004920;28;20016;-62
2022/02/24 11:45:02;;;;;;;;;;;19.00;52.40;;;;;;4988831;28;19922;-62
2022/02/24 11:47:28;;;;;;;;;;;19.00;52.30;;;;;;4985498;28;19914;-62
2022/02/24 11:49:53;;;;;;;;;;;19.00;52.20;;;;;;4985390;28;19920;-64
2022/02/24 11:52:19;;;;;;;;;;;19.00;52.30;;;;;;4986572;28;20300;-64
2022/02/24 11:54:44;;;;;;;;;;;19.00;52.30;;;;;;4984121;28;19964;-63
2022/02/24 11:57:28;;;;;;;;;;;19.00;52.30;;;;;;4985660;28;19925;-56
2022/02/24 11:59:54;;;;;;;;;;;19.00;52.30;;;;;;4985109;28;19921;-63
2022/02/24 12:02:19;;;;;;;;;;;19.10;52.20;;;;;;4984081;28;19913;-63
2022/02/24 12:04:45;;;;;;;;;;;19.10;52.20;;;;;;4985522;28;20438;-64
2022/02/24 12:07:14;;;;;;;;;;;19.10;52.20;;;;;;4985416;28;19914;-64
2022/02/24 12:09:40;;;;;;;;;;;19.00;52.20;;;;;;4985177;28;19929;-61
2022/02/24 12:12:13;;;;;;;;;;;19.10;52.90;;;;;;4985478;28;20332;-65
2022/02/24 12:14:39;;;;;;;;;;;19.00;52.10;;;;;;4993611;28;20000;-65
2022/02/24 12:17:05;;;;;;;;;;;19.10;52.00;;;;;;5004318;28;20012;-64
2022/02/24 12:19:37;;;;;;;;;;;19.10;51.90;;;;;;5004614;28;19921;-63
2022/02/24 12:22:19;;;;;;;;;;;19.10;51.90;;;;;;5004965;28;19921;-64
2022/02/24 12:24:47;;;;;;;;;;;19.10;51.90;;;;;;4977150;28;20340;-64
2022/02/24 12:27:26;;;;;;;;;;;19.10;51.90;;;;;;4998831;28;20479;-63
2022/02/24 12:30:10;;;;;;;;;;;19.10;51.90;;;;;;4999438;28;20376;-63
2022/02/24 12:32:55;;;;;;;;;;;19.20;51.90;;;;;;4997621;28;19918;-58
2022/02/24 12:35:21;;;;;;;;;;;19.10;51.90;;;;;;5005168;28;19920;-65
2022/02/24 12:37:47;;;;;;;;;;;19.20;51.90;;;;;;5003170;28;19980;-63
2022/02/24 12:40:16;;;;;;;;;;;19.10;51.90;;;;;;5004066;28;19922;-62
2022/02/24 12:42:41;;;;;;;;;;;19.20;51.90;;;;;;5004352;28;19914;-59
2022/02/24 12:45:07;;;;;;;;;;;19.10;51.80;;;;;;5004025;28;19917;-63
2022/02/24 12:47:32;;;;;;;;;;;19.20;51.80;;;;;;5004334;28;19949;-62
2022/02/24 12:49:58;;;;;;;;;;;19.10;51.70;;;;;;5004174;28;19914;-63
2022/02/24 12:52:27;;;;;;;;;;;19.20;51.90;;;;;;5003888;28;20392;-63
2022/02/24 12:54:52;;;;;;;;;;;19.10;51.90;;;;;;5003589;28;19924;-61
2022/02/24 12:57:18;;;;;;;;;;;19.20;51.90;;;;;;5003584;28;19922;-58
2022/02/24 12:59:44;;;;;;;;;;;19.20;51.80;;;;;;5003151;28;19965;-63
2022/02/24 13:02:09;;;;;;;;;;;19.20;51.80;;;;;;5003892;28;19914;-52
2022/02/24 13:04:36;;;;;;;;;;;19.20;51.90;;;;;;4999249;28;19914;-62
2022/02/24 13:07:01;;;;;;;;;;;19.20;51.90;;;;;;4983969;28;19944;-62
2022/02/24 13:09:46;;;;;;;;;;;19.20;51.90;;;;;;4984523;28;19953;-65
2022/02/24 13:12:15;;;;;;;;;;;19.10;51.80;;;;;;5000313;28;19922;-61
2022/02/24 13:14:45;;;;;;;;;;;19.20;51.80;;;;;;5021954;28;20000;-62
2022/02/24 13:17:10;;;;;;;;;;;19.10;51.80;;;;;;5002857;28;19963;-64
2022/02/24 13:19:36;;;;;;;;;;;19.10;52.40;;;;;;5003429;28;19939;-55
2022/02/24 13:22:02;;;;;;;;;;;19.20;51.80;;;;;;5005098;28;20395;-55
2022/02/24 13:24:28;;;;;;;;;;;19.10;51.70;;;;;;5003892;28;19917;-62
2022/02/24 13:26:54;;;;;;;;;;;19.20;51.70;;;;;;5003095;28;20435;-61
2022/02/24 13:29:20;;;;;;;;;;;19.20;51.80;;;;;;5002269;28;19917;-62
2022/02/24 13:31:46;;;;;;;;;;;19.20;51.70;;;;;;5003019;28;19913;-63
2022/02/24 13:34:12;;;;;;;;;;;19.20;51.70;;;;;;5003992;28;19917;-65
2022/02/24 13:36:37;;;;;;;;;;;19.10;51.70;;;;;;5002514;28;19924;-61
2022/02/24 13:39:03;;;;;;;;;;;19.10;51.80;;;;;;5002483;28;19917;-62
2022/02/24 13:41:28;;;;;;;;;;;19.20;51.70;;;;;;5001920;28;20620;-62
2022/02/24 13:43:55;;;;;;;;;;;19.20;51.70;;;;;;5003455;28;19914;-58
2022/02/24 13:46:20;;;;;;;;;;;19.10;51.70;;;;;;5011348;28;20044;-61
2022/02/24 13:48:46;;;;;;;;;;;19.10;51.70;;;;;;5002759;28;19945;-64
2022/02/24 13:51:12;;;;;;;;;;;19.20;51.70;;;;;;5002840;28;19941;-64
2022/02/24 13:53:37;;;;;;;;;;;19.10;51.60;;;;;;5002779;28;19917;-61
2022/02/24 13:56:09;;;;;;;;;;;19.10;51.70;;;;;;5002853;28;20291;-57
2022/02/24 13:58:36;;;;;;;;;;;19.10;51.70;;;;;;5021291;28;19949;-63
2022/02/24 14:01:03;;;;;;;;;;;19.20;51.70;;;;;;5003198;28;19949;-60
2022/02/24 14:03:29;;;;;;;;;;;19.10;51.70;;;;;;5001980;28;19972;-63
2022/02/24 14:06:10;;;;;;;;;;;19.10;51.60;;;;;;5034395;28;19936;-63
2022/02/24 14:08:36;;;;;;;;;;;19.10;51.60;;;;;;4999661;28;19922;-63
2022/02/24 14:11:09;;;;;;;;;;;19.10;51.60;;;;;;5002935;28;20304;-62